Time;durP1;ratioP1;P1;durP2;ratioP2;P2;SDS_P1;SDS_P2;PMS_P1;PMS_P2;Temp;Humidity;BMP_temperature;BMP_pressure;BME280_temperature;BME280_humidity;BME280_pressure;Samples;Min_cycle;Max_cycle;Signal;HPM_P1;HPM_P2
2023/07/04 00:01:46;;;;;;;5.20;2.22;;;;;;;;;;10104997;28;20045;-54
2023/07/04 00:06:39;;;;;;;2.08;1.88;;;;;;;;;;10108567;28;20055;-53
2023/07/04 00:11:31;;;;;;;7.88;2.22;;;;;;;;;;10108565;28;20140;-54
2023/07/04 00:16:23;;;;;;;7.40;2.50;;;;;;;;;;10109028;28;20069;-56
2023/07/04 00:21:16;;;;;;;5.72;2.03;;;;;;;;;;10109750;28;20041;-57
2023/07/04 00:26:09;;;;;;;5.70;2.63;;;;;;;;;;10108607;28;20053;-57
2023/07/04 00:31:04;;;;;;;10.38;2.63;;;;;;;;;;10100426;28;20091;-57
2023/07/04 00:36:09;;;;;;;2.92;2.00;;;;;;;;;;10106811;28;20048;-58
2023/07/04 00:41:21;;;;;;;3.53;2.45;;;;;;;;;;10107359;28;20060;-57
2023/07/04 00:46:15;;;;;;;2.45;1.77;;;;;;;;;;10107827;28;20102;-57
2023/07/04 00:51:09;;;;;;;6.70;2.63;;;;;;;;;;10103686;28;20083;-57
2023/07/04 00:56:01;;;;;;;4.18;2.50;;;;;;;;;;10095722;28;20045;-57
2023/07/04 01:00:53;;;;;;;4.65;2.28;;;;;;;;;;10106474;28;20540;-57
2023/07/04 01:06:20;;;;;;;4.28;2.10;;;;;;;;;;10105352;28;20469;-57
2023/07/04 01:11:17;;;;;;;4.05;1.92;;;;;;;;;;10105849;28;20374;-57
2023/07/04 01:16:12;;;;;;;6.70;2.15;;;;;;;;;;10089159;28;20368;-57
2023/07/04 01:21:06;;;;;;;3.03;2.03;;;;;;;;;;10106936;28;20077;-57
2023/07/04 01:26:20;;;;;;;2.28;1.85;;;;;;;;;;10089958;28;20055;-57
2023/07/04 01:31:12;;;;;;;1.95;1.75;;;;;;;;;;10106717;28;20037;-56
2023/07/04 01:36:05;;;;;;;6.38;2.25;;;;;;;;;;10104629;28;20132;-58
2023/07/04 01:40:56;;;;;;;2.22;1.88;;;;;;;;;;10087774;28;20052;-58
2023/07/04 01:45:49;;;;;;;4.78;2.75;;;;;;;;;;10104161;28;20083;-57
2023/07/04 01:50:40;;;;;;;3.00;1.98;;;;;;;;;;10106665;28;20045;-54
2023/07/04 01:55:32;;;;;;;3.28;2.10;;;;;;;;;;10105157;28;20138;-57
2023/07/04 02:00:24;;;;;;;2.13;1.92;;;;;;;;;;10084120;28;20053;-58
2023/07/04 02:05:19;;;;;;;3.70;1.83;;;;;;;;;;10082848;28;20132;-58
2023/07/04 02:10:12;;;;;;;3.33;2.63;;;;;;;;;;10105519;28;20053;-58
2023/07/04 02:15:04;;;;;;;3.22;2.38;;;;;;;;;;10104818;28;20045;-58
2023/07/04 02:19:56;;;;;;;2.53;2.33;;;;;;;;;;10104852;28;20064;-57
2023/07/04 02:24:48;;;;;;;2.42;2.10;;;;;;;;;;10113024;28;20041;-57
2023/07/04 02:29:41;;;;;;;4.07;2.03;;;;;;;;;;10110652;28;20049;-57
2023/07/04 02:34:33;;;;;;;2.10;1.88;;;;;;;;;;10112473;28;20041;-58
2023/07/04 02:39:27;;;;;;;1.95;1.58;;;;;;;;;;10110811;28;20048;-55
2023/07/04 02:44:20;;;;;;;2.38;1.65;;;;;;;;;;10108090;28;20049;-57
2023/07/04 02:49:12;;;;;;;2.67;2.00;;;;;;;;;;10109748;28;20099;-58
2023/07/04 02:54:05;;;;;;;3.00;2.33;;;;;;;;;;10112075;28;20156;-57
2023/07/04 02:58:59;;;;;;;3.65;2.08;;;;;;;;;;10110433;28;20091;-57
2023/07/04 03:03:51;;;;;;;3.47;2.28;;;;;;;;;;10110412;28;20514;-57
2023/07/04 03:08:45;;;;;;;1.80;1.70;;;;;;;;;;10111429;28;20059;-57
2023/07/04 03:13:38;;;;;;;2.72;2.35;;;;;;;;;;10110306;28;20037;-58
2023/07/04 03:18:32;;;;;;;1.95;1.58;;;;;;;;;;10111514;28;20067;-57
2023/07/04 03:23:24;;;;;;;1.92;1.50;;;;;;;;;;10111167;28;20044;-55
2023/07/04 03:28:17;;;;;;;2.15;1.83;;;;;;;;;;10108234;28;20045;-56
2023/07/04 03:33:10;;;;;;;3.95;1.75;;;;;;;;;;10109846;28;20068;-57
2023/07/04 03:38:02;;;;;;;3.58;1.80;;;;;;;;;;10125823;28;20107;-58
2023/07/04 03:42:54;;;;;;;2.40;2.05;;;;;;;;;;10109356;28;20037;-58
2023/07/04 03:47:46;;;;;;;2.67;2.00;;;;;;;;;;10108754;28;20120;-57
2023/07/04 03:52:38;;;;;;;2.10;1.90;;;;;;;;;;10110087;28;20576;-56
2023/07/04 03:57:30;;;;;;;1.83;1.65;;;;;;;;;;10108061;28;20378;-57
2023/07/04 04:02:22;;;;;;;2.15;1.83;;;;;;;;;;10109607;28;20411;-57
2023/07/04 04:07:14;;;;;;;2.70;1.83;;;;;;;;;;10110975;28;20102;-57
2023/07/04 04:12:07;;;;;;;1.73;1.63;;;;;;;;;;10110455;28;20045;-57
2023/07/04 04:16:59;;;;;;;2.10;1.80;;;;;;;;;;10110216;28;20071;-57
2023/07/04 04:21:52;;;;;;;1.90;1.80;;;;;;;;;;10110002;28;20048;-56
2023/07/04 04:26:46;;;;;;;2.33;1.90;;;;;;;;;;10108654;28;20136;-56
2023/07/04 04:31:39;;;;;;;2.35;1.92;;;;;;;;;;10106894;28;20056;-57
2023/07/04 04:36:31;;;;;;;1.77;1.67;;;;;;;;;;10107567;28;20115;-58
2023/07/04 04:41:23;;;;;;;3.42;2.25;;;;;;;;;;10108936;28;20072;-57
2023/07/04 04:46:15;;;;;;;2.53;2.10;;;;;;;;;;10104895;28;20055;-58
2023/07/04 04:51:09;;;;;;;1.85;1.70;;;;;;;;;;10109042;28;20049;-58
2023/07/04 04:56:02;;;;;;;1.92;1.77;;;;;;;;;;10107624;28;20136;-57
2023/07/04 05:00:54;;;;;;;3.00;2.25;;;;;;;;;;10106270;28;20041;-57
2023/07/04 05:05:46;;;;;;;2.05;1.83;;;;;;;;;;10106092;28;20049;-56
2023/07/04 05:10:38;;;;;;;1.60;1.50;;;;;;;;;;10106957;28;20053;-58
2023/07/04 05:15:30;;;;;;;2.70;1.70;;;;;;;;;;10107238;28;20079;-57
2023/07/04 05:20:24;;;;;;;2.03;1.58;;;;;;;;;;10105653;28;20466;-58
2023/07/04 05:25:16;;;;;;;2.00;1.67;;;;;;;;;;10106289;28;20072;-57
2023/07/04 05:30:09;;;;;;;2.55;1.88;;;;;;;;;;10107070;28;20122;-58
2023/07/04 05:35:01;;;;;;;2.13;1.90;;;;;;;;;;10105562;28;20128;-57
2023/07/04 05:39:52;;;;;;;1.70;1.60;;;;;;;;;;10105313;28;20132;-58
2023/07/04 05:44:44;;;;;;;3.80;1.20;;;;;;;;;;10104590;28;20045;-58
2023/07/04 05:49:36;;;;;;;1.63;1.50;;;;;;;;;;10106184;28;20072;-58
2023/07/04 05:54:28;;;;;;;1.63;1.52;;;;;;;;;;10107563;28;20544;-57
2023/07/04 05:59:20;;;;;;;5.70;3.85;;;;;;;;;;10104871;28;20052;-58
2023/07/04 06:04:12;;;;;;;5.55;3.40;;;;;;;;;;10104597;28;20060;-59
2023/07/04 06:09:08;;;;;;;3.53;3.03;;;;;;;;;;10105184;28;20140;-59
2023/07/04 06:14:05;;;;;;;3.60;3.03;;;;;;;;;;10105048;28;20044;-59
2023/07/04 06:18:57;;;;;;;3.70;3.25;;;;;;;;;;10104950;28;20071;-59
2023/07/04 06:23:50;;;;;;;6.00;3.40;;;;;;;;;;10101819;28;20069;-59
2023/07/04 06:28:42;;;;;;;14.15;4.68;;;;;;;;;;10098014;28;20051;-59
2023/07/04 06:33:34;;;;;;;5.72;3.55;;;;;;;;;;10097578;28;20045;-59
2023/07/04 06:38:26;;;;;;;5.82;3.88;;;;;;;;;;10102331;28;20128;-59
2023/07/04 06:43:18;;;;;;;4.47;3.67;;;;;;;;;;10102900;28;20132;-58
2023/07/04 06:48:10;;;;;;;8.73;4.43;;;;;;;;;;10082947;28;20056;-59
2023/07/04 06:53:02;;;;;;;4.68;3.35;;;;;;;;;;10102803;28;20352;-56
2023/07/04 06:57:54;;;;;;;5.05;3.42;;;;;;;;;;10105445;28;20554;-58
2023/07/04 07:02:50;;;;;;;5.82;3.28;;;;;;;;;;10101977;28;20041;-56
2023/07/04 07:07:43;;;;;;;4.28;3.20;;;;;;;;;;10107063;28;20045;-58
2023/07/04 07:12:34;;;;;;;6.18;3.60;;;;;;;;;;10078681;28;20080;-56
2023/07/04 07:17:26;;;;;;;4.97;3.70;;;;;;;;;;10075145;28;20582;-56
2023/07/04 07:22:18;;;;;;;6.03;3.50;;;;;;;;;;10102441;28;20071;-59
2023/07/04 07:27:10;;;;;;;4.75;4.28;;;;;;;;;;10105758;28;20099;-59
2023/07/04 07:32:06;;;;;;;6.45;3.40;;;;;;;;;;10108981;28;20066;-59
2023/07/04 07:36:59;;;;;;;5.18;3.63;;;;;;;;;;10084584;28;20045;-59
2023/07/04 07:41:51;;;;;;;5.07;3.67;;;;;;;;;;10093232;28;20045;-58
2023/07/04 07:46:44;;;;;;;10.05;3.67;;;;;;;;;;10087886;28;20042;-59
2023/07/04 07:51:37;;;;;;;5.63;3.97;;;;;;;;;;10069794;28;20053;-59
2023/07/04 07:56:37;;;;;;;6.20;3.75;;;;;;;;;;10103094;28;20049;-59
2023/07/04 08:01:31;;;;;;;10.68;3.67;;;;;;;;;;10107761;28;20057;-59
2023/07/04 08:06:25;;;;;;;4.53;3.55;;;;;;;;;;10108042;28;20049;-59
2023/07/04 08:11:18;;;;;;;3.80;3.17;;;;;;;;;;10109391;28;20570;-59
2023/07/04 08:16:10;;;;;;;4.68;3.20;;;;;;;;;;10087743;28;20064;-59
2023/07/04 08:21:03;;;;;;;5.15;4.05;;;;;;;;;;10087282;28;20045;-59
2023/07/04 08:25:56;;;;;;;4.80;2.83;;;;;;;;;;10108688;28;20139;-58
2023/07/04 08:30:49;;;;;;;7.03;4.05;;;;;;;;;;10105667;28;20060;-59
2023/07/04 08:35:41;;;;;;;6.03;4.07;;;;;;;;;;10108235;28;20045;-58
2023/07/04 08:40:33;;;;;;;5.00;3.42;;;;;;;;;;10109121;28;20044;-59
2023/07/04 08:45:28;;;;;;;3.50;2.80;;;;;;;;;;10106646;28;20041;-57
2023/07/04 08:50:30;;;;;;;5.05;2.92;;;;;;;;;;10104161;28;20410;-58
2023/07/04 08:55:24;;;;;;;5.82;2.65;;;;;;;;;;10105855;28;20045;-59
2023/07/04 09:00:42;;;;;;;7.72;2.90;;;;;;;;;;10103011;28;20095;-59
2023/07/04 09:05:37;;;;;;;3.70;2.42;;;;;;;;;;10099159;28;20418;-58
2023/07/04 09:10:46;;;;;;;5.53;2.95;;;;;;;;;;10087805;28;20537;-59
2023/07/04 09:15:42;;;;;;;4.97;3.17;;;;;;;;;;10090465;28;20038;-59
2023/07/04 09:20:46;;;;;;;4.07;3.40;;;;;;;;;;10096676;28;20493;-59
2023/07/04 09:25:38;;;;;;;3.55;2.60;;;;;;;;;;10097595;28;20048;-60
2023/07/04 09:30:29;;;;;;;6.40;3.30;;;;;;;;;;10094084;28;20084;-59
2023/07/04 09:35:26;;;;;;;5.22;3.33;;;;;;;;;;10097447;28;20044;-60
2023/07/04 09:40:45;;;;;;;5.70;3.08;;;;;;;;;;10093957;28;20049;-60
2023/07/04 09:45:38;;;;;;;6.38;2.90;;;;;;;;;;10086507;28;20061;-61
2023/07/04 09:50:32;;;;;;;4.63;3.38;;;;;;;;;;10072547;28;20063;-60
2023/07/04 09:55:25;;;;;;;6.60;4.25;;;;;;;;;;10101379;28;20068;-61
2023/07/04 10:00:24;;;;;;;5.43;2.97;;;;;;;;;;10090397;28;20060;-61
2023/07/04 10:05:32;;;;;;;4.55;3.05;;;;;;;;;;10097961;28;20064;-60
2023/07/04 10:10:24;;;;;;;8.00;3.50;;;;;;;;;;10099352;28;20049;-58
2023/07/04 10:15:25;;;;;;;5.93;3.20;;;;;;;;;;10089126;28;20049;-61
2023/07/04 10:20:18;;;;;;;4.53;2.95;;;;;;;;;;10069462;28;20525;-60
2023/07/04 10:25:12;;;;;;;6.38;3.20;;;;;;;;;;10103394;28;20467;-60
2023/07/04 10:30:07;;;;;;;8.15;3.33;;;;;;;;;;10094107;28;20045;-59
2023/07/04 10:34:58;;;;;;;4.70;3.22;;;;;;;;;;10060917;28;20049;-61
2023/07/04 10:40:00;;;;;;;4.13;2.92;;;;;;;;;;10099113;28;20515;-59
2023/07/04 10:44:53;;;;;;;5.72;3.50;;;;;;;;;;10099900;28;20445;-61
2023/07/04 10:49:50;;;;;;;4.00;2.90;;;;;;;;;;10077832;28;20450;-61
2023/07/04 10:54:42;;;;;;;4.68;3.35;;;;;;;;;;10104629;28;20080;-61
2023/07/04 10:59:38;;;;;;;3.38;2.33;;;;;;;;;;10105740;28;20044;-61
2023/07/04 11:04:36;;;;;;;4.13;2.60;;;;;;;;;;10104093;28;20049;-60
2023/07/04 11:09:33;;;;;;;3.55;2.67;;;;;;;;;;10101744;28;20799;-58
2023/07/04 11:14:26;;;;;;;4.27;2.80;;;;;;;;;;10100817;28;20060;-62
2023/07/04 11:19:22;;;;;;;6.07;3.03;;;;;;;;;;10094125;28;20079;-64
2023/07/04 11:24:18;;;;;;;3.58;2.83;;;;;;;;;;10101130;28;20090;-65
2023/07/04 11:29:17;;;;;;;5.50;3.40;;;;;;;;;;10097563;28;20053;-65
2023/07/04 11:34:10;;;;;;;4.95;2.42;;;;;;;;;;10064494;28;20095;-65
2023/07/04 11:39:32;;;;;;;5.10;2.97;;;;;;;;;;10098617;28;20052;-64
2023/07/04 11:44:30;;;;;;;3.15;2.22;;;;;;;;;;10081580;28;20041;-65
2023/07/04 11:49:22;;;;;;;2.70;2.00;;;;;;;;;;10097624;28;20052;-65
2023/07/04 11:54:14;;;;;;;5.65;1.95;;;;;;;;;;10107060;28;20049;-65
2023/07/04 11:59:18;;;;;;;2.72;2.25;;;;;;;;;;10103111;28;20446;-65
2023/07/04 12:04:10;;;;;;;3.13;2.03;;;;;;;;;;10105487;28;20392;-64
2023/07/04 12:09:08;;;;;;;5.68;2.30;;;;;;;;;;10095845;28;20056;-64
2023/07/04 12:14:00;;;;;;;5.43;2.55;;;;;;;;;;10099097;28;20064;-63
2023/07/04 12:18:52;;;;;;;4.07;1.70;;;;;;;;;;10097947;28;20098;-63
2023/07/04 12:23:45;;;;;;;6.70;2.35;;;;;;;;;;10108214;28;20355;-64
2023/07/04 12:28:37;;;;;;;2.10;1.65;;;;;;;;;;10106173;28;20090;-63
2023/07/04 12:33:31;;;;;;;2.88;1.95;;;;;;;;;;10101823;28;20033;-64
2023/07/04 12:38:26;;;;;;;2.47;1.60;;;;;;;;;;10106228;28;20352;-63
2023/07/04 12:43:20;;;;;;;1.60;1.45;;;;;;;;;;10102610;28;20063;-64
2023/07/04 12:48:15;;;;;;;2.90;1.67;;;;;;;;;;10099781;28;20037;-64
2023/07/04 12:53:11;;;;;;;3.72;1.88;;;;;;;;;;10107714;28;20178;-64
2023/07/04 12:58:07;;;;;;;4.00;1.60;;;;;;;;;;10104051;28;20155;-64
2023/07/04 13:03:12;;;;;;;2.15;1.30;;;;;;;;;;10097472;28;20037;-64
2023/07/04 13:08:15;;;;;;;4.47;1.70;;;;;;;;;;10102559;28;20527;-64
2023/07/04 13:13:35;;;;;;;3.22;1.95;;;;;;;;;;10104643;28;20083;-64
2023/07/04 13:18:31;;;;;;;2.85;1.67;;;;;;;;;;10071113;28;20049;-64
2023/07/04 13:23:24;;;;;;;2.55;1.52;;;;;;;;;;10101047;28;20049;-64
2023/07/04 13:28:23;;;;;;;3.05;1.52;;;;;;;;;;10106294;28;20045;-64
2023/07/04 13:33:47;;;;;;;2.78;1.90;;;;;;;;;;10102614;28;20350;-63
2023/07/04 13:38:40;;;;;;;2.47;1.33;;;;;;;;;;10099894;28;20044;-64
2023/07/04 13:43:36;;;;;;;2.70;1.50;;;;;;;;;;10103238;28;20033;-64
2023/07/04 13:48:32;;;;;;;2.53;1.60;;;;;;;;;;10068596;28;20056;-64
2023/07/04 13:53:24;;;;;;;1.65;1.55;;;;;;;;;;10100993;28;20513;-64
2023/07/04 13:58:16;;;;;;;3.58;1.50;;;;;;;;;;10104881;28;20041;-64
2023/07/04 14:03:08;;;;;;;1.65;1.50;;;;;;;;;;10085807;28;20372;-64
2023/07/04 14:08:03;;;;;;;1.50;1.17;;;;;;;;;;10082038;28;20046;-65
2023/07/04 14:12:55;;;;;;;3.38;1.35;;;;;;;;;;10091122;28;20400;-64
2023/07/04 14:17:47;;;;;;;1.13;1.02;;;;;;;;;;10092742;28;20037;-62
2023/07/04 14:22:42;;;;;;;2.22;1.80;;;;;;;;;;10104972;28;20075;-62
2023/07/04 14:27:35;;;;;;;2.97;1.35;;;;;;;;;;10103485;28;20486;-63
2023/07/04 14:32:34;;;;;;;3.05;1.42;;;;;;;;;;10098188;28;20071;-60
2023/07/04 14:37:26;;;;;;;3.05;1.40;;;;;;;;;;10102011;28;20068;-63
2023/07/04 14:42:18;;;;;;;2.72;1.30;;;;;;;;;;10103287;28;20128;-63
2023/07/04 14:47:20;;;;;;;4.45;2.08;;;;;;;;;;10077178;28;20045;-62
2023/07/04 14:52:13;;;;;;;2.17;1.58;;;;;;;;;;10087803;28;20053;-63
2023/07/04 14:57:05;;;;;;;2.33;1.40;;;;;;;;;;10103835;28;20045;-64
2023/07/04 15:01:58;;;;;;;5.65;1.80;;;;;;;;;;10103407;28;20099;-62
2023/07/04 15:06:50;;;;;;;2.58;1.40;;;;;;;;;;10101833;28;20132;-64
2023/07/04 15:11:42;;;;;;;2.75;2.03;;;;;;;;;;10102302;28;20053;-64
2023/07/04 15:16:34;;;;;;;2.72;1.90;;;;;;;;;;10083268;28;20042;-64
2023/07/04 15:21:25;;;;;;;3.38;1.83;;;;;;;;;;10081293;28;20041;-63
2023/07/04 15:26:19;;;;;;;3.88;2.67;;;;;;;;;;10104740;28;20446;-64
2023/07/04 15:31:19;;;;;;;2.80;1.60;;;;;;;;;;10105596;28;20107;-63
2023/07/04 15:36:11;;;;;;;2.13;1.63;;;;;;;;;;10110900;28;20041;-63
2023/07/04 15:41:03;;;;;;;4.30;1.70;;;;;;;;;;10120003;28;20471;-63
2023/07/04 15:46:06;;;;;;;2.40;1.52;;;;;;;;;;10104802;28;20037;-62
2023/07/04 15:50:58;;;;;;;4.07;1.77;;;;;;;;;;10106832;28;20040;-62
2023/07/04 15:55:51;;;;;;;2.33;1.50;;;;;;;;;;10107760;28;20048;-63
2023/07/04 16:00:45;;;;;;;4.95;1.70;;;;;;;;;;10101633;28;20077;-63
2023/07/04 16:05:41;;;;;;;3.05;1.63;;;;;;;;;;10105555;28;20045;-63
2023/07/04 16:10:33;;;;;;;2.92;1.73;;;;;;;;;;10107356;28;20049;-63
2023/07/04 16:15:25;;;;;;;2.50;1.63;;;;;;;;;;10105713;28;20045;-63
2023/07/04 16:20:18;;;;;;;4.20;1.50;;;;;;;;;;10105016;28;20049;-63
2023/07/04 16:25:10;;;;;;;3.35;1.80;;;;;;;;;;10105474;28;20413;-63
2023/07/04 16:30:06;;;;;;;4.55;1.67;;;;;;;;;;10099157;28;20132;-63
2023/07/04 16:34:58;;;;;;;1.88;1.35;;;;;;;;;;10105020;28;20119;-63
2023/07/04 16:39:50;;;;;;;1.92;1.48;;;;;;;;;;10107487;28;20500;-63
2023/07/04 16:44:42;;;;;;;4.70;1.67;;;;;;;;;;10090200;28;20057;-63
2023/07/04 16:49:33;;;;;;;2.08;1.70;;;;;;;;;;10099315;28;20044;-63
2023/07/04 16:54:25;;;;;;;2.10;1.50;;;;;;;;;;10109192;28;20072;-63
2023/07/04 16:59:17;;;;;;;2.42;1.55;;;;;;;;;;10105679;28;20120;-63
2023/07/04 17:04:09;;;;;;;3.35;1.55;;;;;;;;;;10103986;28;20053;-62
2023/07/04 17:09:01;;;;;;;1.48;1.27;;;;;;;;;;10106528;28;20095;-63
2023/07/04 17:13:54;;;;;;;4.50;1.58;;;;;;;;;;10107385;28;20461;-63
2023/07/04 17:18:46;;;;;;;2.00;1.75;;;;;;;;;;10104284;28;20076;-63
2023/07/04 17:23:38;;;;;;;2.13;1.60;;;;;;;;;;10103259;28;20049;-63
2023/07/04 17:28:30;;;;;;;2.22;1.60;;;;;;;;;;10103450;28;20045;-64
2023/07/04 17:33:22;;;;;;;1.60;1.50;;;;;;;;;;10105437;28;20375;-63
2023/07/04 17:38:14;;;;;;;2.75;1.80;;;;;;;;;;10102892;28;20087;-63
2023/07/04 17:43:06;;;;;;;1.73;1.58;;;;;;;;;;10105337;28;20422;-61
2023/07/04 17:47:58;;;;;;;3.50;1.83;;;;;;;;;;10105066;28;20091;-61
2023/07/04 17:52:49;;;;;;;3.08;1.80;;;;;;;;;;10105616;28;20045;-61
2023/07/04 17:57:41;;;;;;;3.22;2.00;;;;;;;;;;10089901;28;20041;-61
2023/07/04 18:02:33;;;;;;;4.78;2.00;;;;;;;;;;10097212;28;20100;-61
2023/07/04 18:07:25;;;;;;;14.50;3.60;;;;;;;;;;10102356;28;20049;-61
2023/07/04 18:12:21;;;;;;;28.95;7.80;;;;;;;;;;10092504;28;20132;-61
2023/07/04 18:17:16;;;;;;;26.15;6.70;;;;;;;;;;10101772;28;20474;-61
2023/07/04 18:22:09;;;;;;;29.25;9.15;;;;;;;;;;10103732;28;20048;-61
2023/07/04 18:27:01;;;;;;;25.33;6.22;;;;;;;;;;10102680;28;20045;-61
2023/07/04 18:31:57;;;;;;;21.55;6.55;;;;;;;;;;10098160;28;20106;-61
2023/07/04 18:36:49;;;;;;;13.60;5.63;;;;;;;;;;10098021;28;20049;-61
2023/07/04 18:41:41;;;;;;;14.65;5.78;;;;;;;;;;10083410;28;20052;-61
2023/07/04 18:46:35;;;;;;;10.05;4.90;;;;;;;;;;10091884;28;20080;-61
2023/07/04 18:51:32;;;;;;;6.85;3.58;;;;;;;;;;10102181;28;20486;-61
2023/07/04 18:56:33;;;;;;;11.63;4.80;;;;;;;;;;10103091;28;20379;-59
2023/07/04 19:01:27;;;;;;;6.20;3.78;;;;;;;;;;10102541;28;20045;-61
2023/07/04 19:06:22;;;;;;;7.05;4.38;;;;;;;;;;10101974;28;20045;-60
2023/07/04 19:11:16;;;;;;;13.20;3.38;;;;;;;;;;10110249;28;20045;-60
2023/07/04 19:16:09;;;;;;;21.05;5.47;;;;;;;;;;10110373;28;20075;-68
2023/07/04 19:21:02;;;;;;;9.85;3.67;;;;;;;;;;10111401;28;20366;-60
2023/07/04 19:25:54;;;;;;;7.38;3.47;;;;;;;;;;10100128;28;20041;-62
2023/07/04 19:31:06;;;;;;;6.03;3.92;;;;;;;;;;10107686;28;20059;-62
2023/07/04 19:35:59;;;;;;;6.35;3.25;;;;;;;;;;10079868;28;20112;-61
2023/07/04 19:40:58;;;;;;;7.50;3.00;;;;;;;;;;10094342;28;20099;-61
2023/07/04 19:46:08;;;;;;;3.85;2.20;;;;;;;;;;10090312;28;20362;-59
2023/07/04 19:51:10;;;;;;;3.05;2.33;;;;;;;;;;10102287;28;20359;-60
2023/07/04 19:56:05;;;;;;;5.20;3.00;;;;;;;;;;10097524;28;20041;-60
2023/07/04 20:00:58;;;;;;;3.95;2.70;;;;;;;;;;10090617;28;20375;-58
2023/07/04 20:05:50;;;;;;;6.80;2.50;;;;;;;;;;10083842;28;20041;-58
2023/07/04 20:10:42;;;;;;;3.53;2.03;;;;;;;;;;10070636;28;20379;-58
2023/07/04 20:15:34;;;;;;;3.17;2.17;;;;;;;;;;10082953;28;20064;-60
2023/07/04 20:20:26;;;;;;;3.80;2.47;;;;;;;;;;10070536;28;20041;-59
2023/07/04 20:25:18;;;;;;;2.60;2.15;;;;;;;;;;10096284;28;20099;-57
2023/07/04 20:30:10;;;;;;;2.95;1.95;;;;;;;;;;10099097;28;20057;-57
2023/07/04 20:35:02;;;;;;;4.65;1.73;;;;;;;;;;10076857;28;20041;-59
2023/07/04 20:39:54;;;;;;;1.92;1.75;;;;;;;;;;10089812;28;20049;-59
2023/07/04 20:44:46;;;;;;;3.85;2.35;;;;;;;;;;10086994;28;20033;-58
2023/07/04 20:49:38;;;;;;;6.10;2.17;;;;;;;;;;10069567;28;20056;-59
2023/07/04 20:54:31;;;;;;;2.55;1.73;;;;;;;;;;10082499;28;20049;-58
2023/07/04 20:59:23;;;;;;;4.70;2.17;;;;;;;;;;10086649;28;20471;-58
2023/07/04 21:04:16;;;;;;;5.72;1.92;;;;;;;;;;10070791;28;20092;-59
2023/07/04 21:09:18;;;;;;;2.22;1.88;;;;;;;;;;10106945;28;20119;-59
2023/07/04 21:14:10;;;;;;;4.72;2.08;;;;;;;;;;10096986;28;20077;-58
2023/07/04 21:19:02;;;;;;;2.05;1.77;;;;;;;;;;10093394;28;20045;-59
2023/07/04 21:23:54;;;;;;;2.75;1.67;;;;;;;;;;10096088;28;20056;-59
2023/07/04 21:28:46;;;;;;;2.40;1.42;;;;;;;;;;10093355;28;20045;-59
2023/07/04 21:33:40;;;;;;;7.22;2.00;;;;;;;;;;10102923;28;20443;-58
2023/07/04 21:38:33;;;;;;;5.22;2.20;;;;;;;;;;10097796;28;20045;-59
2023/07/04 21:43:25;;;;;;;4.07;1.60;;;;;;;;;;10101973;28;20053;-58
2023/07/04 21:48:17;;;;;;;2.30;1.70;;;;;;;;;;10107768;28;20049;-59
2023/07/04 21:53:09;;;;;;;3.25;2.10;;;;;;;;;;10102204;28;20128;-59
2023/07/04 21:58:01;;;;;;;1.60;1.50;;;;;;;;;;10101735;28;20479;-59
2023/07/04 22:02:53;;;;;;;4.05;1.90;;;;;;;;;;10076933;28;20087;-59
2023/07/04 22:07:45;;;;;;;1.67;1.48;;;;;;;;;;10098668;28;20040;-56
2023/07/04 22:12:36;;;;;;;2.20;1.90;;;;;;;;;;10099252;28;20052;-59
2023/07/04 22:17:28;;;;;;;3.20;1.70;;;;;;;;;;10088587;28;20118;-59
2023/07/04 22:22:20;;;;;;;6.68;1.67;;;;;;;;;;10103388;28;20103;-59
2023/07/04 22:27:12;;;;;;;2.78;1.77;;;;;;;;;;10105123;28;20073;-59
2023/07/04 22:32:04;;;;;;;3.33;1.90;;;;;;;;;;10091041;28;20080;-57
2023/07/04 22:36:56;;;;;;;1.88;1.70;;;;;;;;;;10102650;28;20439;-59
2023/07/04 22:41:48;;;;;;;5.13;2.13;;;;;;;;;;10109885;28;20143;-59
2023/07/04 22:46:40;;;;;;;2.58;2.28;;;;;;;;;;10110116;28;20095;-59
2023/07/04 22:51:31;;;;;;;2.55;1.63;;;;;;;;;;10111719;28;20045;-59
2023/07/04 22:56:24;;;;;;;3.65;1.45;;;;;;;;;;10113420;28;20541;-59
2023/07/04 23:01:18;;;;;;;1.98;1.70;;;;;;;;;;10108136;28;20128;-59
2023/07/04 23:06:11;;;;;;;2.38;1.63;;;;;;;;;;10110082;28;20045;-59
2023/07/04 23:11:03;;;;;;;1.90;1.80;;;;;;;;;;10111227;28;20044;-59
2023/07/04 23:16:04;;;;;;;2.92;2.13;;;;;;;;;;10106745;28;20044;-56
2023/07/04 23:20:56;;;;;;;4.38;1.50;;;;;;;;;;10108416;28;20040;-59
2023/07/04 23:25:48;;;;;;;2.10;1.67;;;;;;;;;;10110670;28;20052;-59
2023/07/04 23:30:40;;;;;;;2.83;1.85;;;;;;;;;;10111147;28;20072;-58
2023/07/04 23:35:32;;;;;;;2.17;1.88;;;;;;;;;;10101863;28;20128;-58
2023/07/04 23:40:23;;;;;;;2.50;1.80;;;;;;;;;;10087300;28;20603;-59
2023/07/04 23:45:15;;;;;;;3.83;2.28;;;;;;;;;;10108790;28;20244;-59
2023/07/04 23:50:07;;;;;;;3.05;2.00;;;;;;;;;;10107816;28;20467;-60
2023/07/04 23:54:59;;;;;;;2.28;1.58;;;;;;;;;;10109080;28;20037;-59
2023/07/04 23:59:51;;;;;;;6.40;2.08;;;;;;;;;;10070602;28;20050;-59
